Time;durP1;ratioP1;P1;durP2;ratioP2;P2;SDS_P1;SDS_P2;PMS_P1;PMS_P2;Temp;Humidity;BMP_temperature;BMP_pressure;BME280_temperature;BME280_humidity;BME280_pressure;Samples;Min_cycle;Max_cycle;Signal;HPM_P1;HPM_P2
2021/03/19 00:02:40;;;;;;;20.00;17.83;;;;;;;3.64;100.00;101209.91;10462904;28;20484;-72
2021/03/19 00:07:54;;;;;;;14.00;12.57;;;;;;;3.64;100.00;101212.53;10461326;28;20044;-72
2021/03/19 00:12:58;;;;;;;17.25;15.45;;;;;;;3.64;100.00;101219.47;10461939;28;20045;-72
2021/03/19 00:18:01;;;;;;;23.90;21.33;;;;;;;3.66;100.00;101213.38;10460544;28;20056;-72
2021/03/19 00:23:06;;;;;;;16.77;15.02;;;;;;;3.59;100.00;101206.47;10461055;28;20056;-71
2021/03/19 00:28:13;;;;;;;25.70;22.95;;;;;;;3.57;100.00;101202.16;10461337;28;20045;-71
2021/03/19 00:33:15;;;;;;;22.35;20.02;;;;;;;3.50;100.00;101209.13;10460625;28;20052;-72
2021/03/19 00:38:17;;;;;;;22.23;19.65;;;;;;;3.39;100.00;101201.38;10459700;28;20067;-72
2021/03/19 00:43:18;;;;;;;20.83;18.02;;;;;;;3.32;100.00;101199.69;10461003;28;20056;-72
2021/03/19 00:48:20;;;;;;;19.02;16.88;;;;;;;3.33;100.00;101191.00;10460541;28;20354;-72
2021/03/19 00:53:25;;;;;;;21.45;16.90;;;;;;;3.25;100.00;101189.31;10459975;28;20083;-72
2021/03/19 00:58:28;;;;;;;21.73;17.80;;;;;;;3.24;100.00;101205.81;10460546;28;20051;-72
2021/03/19 01:03:29;;;;;;;22.92;17.02;;;;;;;3.22;100.00;101211.00;10443094;28;20052;-72
2021/03/19 01:08:30;;;;;;;21.63;16.73;;;;;;;3.19;100.00;101217.94;10441197;28;20045;-72
2021/03/19 01:13:32;;;;;;;22.55;17.85;;;;;;;3.19;100.00;101220.56;10460092;28;20060;-72
2021/03/19 01:18:34;;;;;;;23.67;18.92;;;;;;;3.10;100.00;101213.66;10459042;28;20416;-72
2021/03/19 01:23:51;;;;;;;22.05;17.20;;;;;;;2.97;100.00;101194.63;10459982;28;20037;-72
2021/03/19 01:28:52;;;;;;;22.27;18.67;;;;;;;2.93;100.00;101189.47;10442128;28;20040;-72
2021/03/19 01:33:58;;;;;;;21.33;18.30;;;;;;;2.78;100.00;101166.94;10459947;28;20056;-72
2021/03/19 01:39:00;;;;;;;22.45;18.23;;;;;;;2.63;100.00;101173.06;10457658;28;20332;-72
2021/03/19 01:44:09;;;;;;;20.08;16.90;;;;;;;2.49;100.00;101164.44;10459849;28;20033;-72
2021/03/19 01:49:48;;;;;;;19.75;16.42;;;;;;;2.45;100.00;101170.50;10457635;28;20454;-73
2021/03/19 01:55:27;;;;;;;18.30;16.33;;;;;;;2.38;100.00;101175.72;10458860;28;20033;-72
2021/03/19 02:01:05;;;;;;;18.27;15.90;;;;;;;2.20;100.00;101158.41;10458535;28;20111;-72
2021/03/19 02:06:45;;;;;;;18.55;16.35;;;;;;;2.31;100.00;101174.88;10457633;28;20053;-72
2021/03/19 02:12:23;;;;;;;20.58;17.70;;;;;;;2.32;100.00;101189.59;10457306;28;20041;-72
2021/03/19 02:18:02;;;;;;;22.77;19.08;;;;;;;2.33;100.00;101206.94;10440966;28;20045;-72
2021/03/19 02:23:41;;;;;;;24.23;20.90;;;;;;;2.37;100.00;101212.97;10464304;28;20124;-72
2021/03/19 02:29:19;;;;;;;25.85;21.35;;;;;;;2.33;100.00;101208.66;10466283;28;20148;-72
2021/03/19 02:34:26;;;;;;;24.20;20.40;;;;;;;2.19;100.00;101190.47;10465153;28;20048;-72
2021/03/19 02:39:28;;;;;;;27.20;21.23;;;;;;;2.08;100.00;101185.28;10464764;28;20128;-72
2021/03/19 02:44:29;;;;;;;25.27;21.00;;;;;;;2.00;100.00;101175.78;10466056;28;20457;-72
2021/03/19 02:49:31;;;;;;;30.00;23.30;;;;;;;1.93;100.00;101169.69;10465269;28;20040;-72
2021/03/19 02:54:51;;;;;;;28.13;23.08;;;;;;;1.95;100.00;101198.28;10464891;28;20049;-72
2021/03/19 02:59:52;;;;;;;28.40;23.13;;;;;;;1.80;100.00;101183.56;10464716;28;20041;-72
2021/03/19 03:04:53;;;;;;;27.38;21.50;;;;;;;1.69;100.00;101187.84;10480457;28;20052;-72
2021/03/19 03:09:55;;;;;;;28.17;22.55;;;;;;;1.64;100.00;101197.38;10463525;28;20453;-71
2021/03/19 03:14:56;;;;;;;25.55;20.92;;;;;;;1.56;100.00;101189.59;10464706;28;20346;-72
2021/03/19 03:19:57;;;;;;;25.23;20.95;;;;;;;1.42;100.00;101184.34;10464355;28;20365;-71
2021/03/19 03:25:15;;;;;;;25.48;19.73;;;;;;;1.33;100.00;101202.53;10463519;28;20063;-72
2021/03/19 03:30:23;;;;;;;24.55;20.85;;;;;;;1.18;100.00;101212.81;10462502;28;20052;-72
2021/03/19 03:35:26;;;;;;;26.42;21.33;;;;;;;1.10;100.00;101220.59;10462800;28;20488;-71
2021/03/19 03:40:37;;;;;;;27.48;23.10;;;;;;;1.04;100.00;101238.72;10463511;28;20124;-72
2021/03/19 03:45:38;;;;;;;25.92;20.85;;;;;;;1.10;100.00;101259.50;10462961;28;20056;-72
2021/03/19 03:50:41;;;;;;;27.27;22.27;;;;;;;1.09;100.00;101275.06;10462763;28;20045;-72
2021/03/19 03:55:42;;;;;;;28.42;22.20;;;;;;;0.94;100.00;101273.25;10445359;28;20060;-72
2021/03/19 04:00:45;;;;;;;29.30;23.30;;;;;;;0.97;100.00;101280.19;10462041;28;20056;-72
2021/03/19 04:05:48;;;;;;;27.35;21.85;;;;;;;0.88;100.00;101280.16;10462045;28;20069;-72
2021/03/19 04:10:52;;;;;;;24.30;21.35;;;;;;;0.81;100.00;101301.72;10461369;28;20048;-72
2021/03/19 04:15:53;;;;;;;29.50;22.63;;;;;;;0.73;100.00;101325.88;10461652;28;20355;-72
2021/03/19 04:20:59;;;;;;;27.95;21.80;;;;;;;0.70;100.00;101349.19;10445733;28;20048;-72
2021/03/19 04:26:01;;;;;;;23.67;19.15;;;;;;;0.70;100.00;101356.97;10460168;28;20037;-73
2021/03/19 04:31:04;;;;;;;27.52;20.42;;;;;;;0.86;100.00;101385.59;10461539;28;20056;-72
2021/03/19 04:36:31;;;;;;;23.98;19.33;;;;;;;1.02;100.00;101405.59;10460998;28;20382;-72
2021/03/19 04:41:33;;;;;;;26.80;21.65;;;;;;;1.28;100.00;101423.97;10460056;28;20469;-72
2021/03/19 04:46:35;;;;;;;26.08;20.10;;;;;;;1.39;100.00;101432.69;10459872;28;20041;-72
2021/03/19 04:51:36;;;;;;;26.27;19.55;;;;;;;1.49;100.00;101453.53;10460772;28;20423;-72
2021/03/19 04:56:37;;;;;;;25.42;20.30;;;;;;;1.59;100.00;101459.63;10458919;28;20453;-72
2021/03/19 05:01:53;;;;;;;25.95;20.50;;;;;;;1.69;100.00;101468.34;10459965;28;20052;-72
2021/03/19 05:07:01;;;;;;;24.98;20.55;;;;;;;1.82;100.00;101467.56;10460366;28;20513;-71
2021/03/19 05:12:04;;;;;;;35.28;22.23;;;;;;;1.71;100.00;101443.25;10459956;28;20120;-72
2021/03/19 05:17:05;;;;;;;31.58;24.20;;;;;;;1.55;100.00;101421.53;10459036;28;20048;-71
2021/03/19 05:22:07;;;;;;;30.55;23.15;;;;;;;1.32;100.00;101400.66;10459326;28;20057;-72
2021/03/19 05:27:09;;;;;;;34.10;25.08;;;;;;;1.26;100.00;101415.28;10443947;28;20061;-72
2021/03/19 05:32:10;;;;;;;28.92;23.20;;;;;;;1.15;100.00;101407.44;10453890;28;20477;-71
2021/03/19 05:37:12;;;;;;;28.98;22.00;;;;;;;1.13;100.00;101423.00;10458217;28;20053;-72
2021/03/19 05:42:33;;;;;;;30.33;24.10;;;;;;;1.07;100.00;101424.69;10458340;28;20041;-72
2021/03/19 05:47:35;;;;;;;32.45;24.90;;;;;;;1.04;100.00;101435.03;10458109;28;20492;-71
2021/03/19 05:52:37;;;;;;;29.55;22.33;;;;;;;1.01;100.00;101432.41;10458955;28;20067;-72
2021/03/19 05:57:38;;;;;;;29.88;23.23;;;;;;;0.96;100.00;101445.34;10447717;28;20052;-72
2021/03/19 06:02:39;;;;;;;31.63;24.75;;;;;;;1.01;100.00;101461.81;10450278;28;20454;-72
2021/03/19 06:07:49;;;;;;;32.78;23.40;;;;;;;1.07;100.00;101468.78;10445101;28;20131;-72
2021/03/19 06:13:20;;;;;;;30.73;23.35;;;;;;;1.18;100.00;101477.53;10466928;28;20067;-72
2021/03/19 06:18:40;;;;;;;30.33;22.90;;;;;;;1.39;100.00;101503.66;10466206;28;20044;-72
2021/03/19 06:24:17;;;;;;;32.78;23.45;;;;;;;1.58;100.00;101524.56;10449345;28;20488;-72
2021/03/19 06:29:21;;;;;;;33.15;24.65;;;;;;;1.78;100.00;101529.03;10466269;28;20041;-72
2021/03/19 06:34:26;;;;;;;30.48;23.00;;;;;;;1.99;100.00;101537.81;10435160;28;20041;-73
2021/03/19 06:39:46;;;;;;;28.08;21.70;;;;;;;2.18;100.00;101534.44;10423761;28;20359;-72
2021/03/19 06:45:07;;;;;;;27.30;21.08;;;;;;;2.39;100.00;101552.75;10424839;28;20049;-72
2021/03/19 06:50:23;;;;;;;28.65;20.80;;;;;;;2.78;100.00;101554.59;10422960;28;20041;-72
2021/03/19 06:55:37;;;;;;;29.58;19.77;;;;;;;3.03;100.00;101563.34;10423175;28;20132;-73
2021/03/19 07:00:46;;;;;;;26.42;20.20;;;;;;;3.85;100.00;101612.03;10423038;28;20060;-72
2021/03/19 07:06:19;;;;;;;24.15;18.38;;;;;;;4.00;100.00;101589.41;10422374;28;20049;-72
2021/03/19 07:11:28;;;;;;;25.40;18.17;;;;;;;4.15;100.00;101580.69;10439092;28;20041;-72
2021/03/19 07:17:00;;;;;;;30.23;23.63;;;;;;;4.68;100.00;101574.44;10438702;28;20045;-72
2021/03/19 07:22:10;;;;;;;16.50;14.30;;;;;;;4.63;97.75;101547.47;10422999;28;20136;-72
2021/03/19 07:27:33;;;;;;;16.52;13.27;;;;;;;4.91;94.48;101564.72;10421642;28;20046;-72
2021/03/19 07:32:51;;;;;;;15.45;12.80;;;;;;;5.03;91.69;101559.41;10422141;28;20034;-71
2021/03/19 07:38:32;;;;;;;13.88;12.43;;;;;;;5.64;88.34;101603.41;10422240;28;20473;-72
2021/03/19 07:43:39;;;;;;;14.85;12.50;;;;;;;5.71;84.80;101550.19;10461993;28;20052;-72
2021/03/19 07:48:56;;;;;;;14.75;12.50;;;;;;;6.45;82.27;101616.59;10461490;28;20390;-73
2021/03/19 07:54:37;;;;;;;13.00;11.48;;;;;;;7.19;78.93;101652.34;10463211;28;20110;-72
2021/03/19 08:00:10;;;;;;;12.73;10.60;;;;;;;7.39;77.17;101628.47;10462030;28;20041;-73
2021/03/19 08:05:26;;;;;;;12.57;10.27;;;;;;;7.33;74.61;101552.56;10461993;28;20405;-72
2021/03/19 08:10:50;;;;;;;13.50;10.50;;;;;;;8.13;73.98;101647.38;10462366;28;20461;-72
2021/03/19 08:15:58;;;;;;;11.45;10.32;;;;;;;8.19;72.08;101604.41;10461493;28;20053;-72
2021/03/19 08:21:37;;;;;;;11.65;10.45;;;;;;;8.18;71.12;101569.44;10460510;28;20132;-72
2021/03/19 08:26:45;;;;;;;13.65;11.48;;;;;;;8.94;68.40;101567.03;10460235;28;20375;-72
2021/03/19 08:31:53;;;;;;;18.60;16.90;;;;;;;9.16;67.02;101584.03;10460353;28;20041;-72
2021/03/19 08:36:55;;;;;;;13.27;10.75;;;;;;;10.07;65.44;101655.47;10456266;28;20146;-72
2021/03/19 08:42:04;;;;;;;10.98;9.75;;;;;;;10.27;63.35;101591.81;10428347;28;20041;-73
2021/03/19 08:47:13;;;;;;;9.65;8.65;;;;;;;9.92;63.71;101608.50;10417940;28;20563;-73
2021/03/19 08:52:19;;;;;;;11.30;8.63;;;;;;;10.25;61.99;101570.78;10419480;28;20049;-72
2021/03/19 08:57:22;;;;;;;9.43;8.40;;;;;;;10.39;60.84;101546.69;10418802;28;20045;-73
2021/03/19 09:02:24;;;;;;;9.40;7.90;;;;;;;10.22;60.94;101535.75;10434714;28;20111;-72
2021/03/19 09:07:25;;;;;;;10.32;8.55;;;;;;;11.11;59.57;101618.38;10417588;28;20076;-72
2021/03/19 09:12:51;;;;;;;8.15;7.22;;;;;;;10.73;60.13;101554.47;10417632;28;20068;-73
2021/03/19 09:17:54;;;;;;;9.52;7.82;;;;;;;9.90;60.33;101468.16;10418462;28;20363;-73
2021/03/19 09:23:12;;;;;;;10.57;7.93;;;;;;;10.34;59.17;101485.38;10433967;28;20045;-72
2021/03/19 09:28:27;;;;;;;9.82;8.13;;;;;;;10.87;58.15;101544.41;10433170;28;20378;-73
2021/03/19 09:33:41;;;;;;;8.20;6.55;;;;;;;13.05;55.75;101693.72;10400692;28;20049;-73
2021/03/19 09:38:42;;;;;;;8.20;6.13;;;;;;;11.65;57.01;101550.66;10432918;28;20037;-73
2021/03/19 09:43:49;;;;;;;8.63;7.00;;;;;;;11.51;57.97;101632.06;10433641;28;20469;-72
2021/03/19 09:49:05;;;;;;;11.02;8.98;;;;;;;11.21;56.57;101523.09;10456119;28;20081;-73
2021/03/19 09:54:19;;;;;;;8.13;5.57;;;;;;;12.42;55.78;101628.13;10445146;28;20347;-73
2021/03/19 09:59:31;;;;;;;5.63;4.82;;;;;;;11.54;54.36;101459.56;10419716;28;20116;-73
2021/03/19 10:04:38;;;;;;;9.00;5.03;;;;;;;11.30;54.88;101474.44;10458159;28;20484;-73
2021/03/19 10:09:49;;;;;;;6.68;5.22;;;;;;;9.63;57.86;101456.63;10455213;28;20059;-72
2021/03/19 10:14:53;;;;;;;7.28;6.30;;;;;;;11.88;56.10;101655.53;10448324;28;20049;-73
2021/03/19 10:20:29;;;;;;;5.93;5.10;;;;;;;11.35;55.34;101520.00;10457530;28;20045;-73
2021/03/19 10:25:37;;;;;;;6.00;4.63;;;;;;;11.83;55.00;101575.59;10446184;28;20068;-73
2021/03/19 10:30:44;;;;;;;10.07;6.93;;;;;;;11.98;53.92;101569.78;10455104;28;20043;-73
2021/03/19 10:35:59;;;;;;;6.60;5.03;;;;;;;9.48;56.51;101383.38;10456331;28;20045;-73
2021/03/19 10:41:12;;;;;;;6.05;4.68;;;;;;;8.18;58.00;101351.56;10459097;28;20053;-73
2021/03/19 10:46:35;;;;;;;14.07;10.88;;;;;;;11.05;52.95;101545.56;10464176;28;20450;-72
2021/03/19 10:51:56;;;;;;;10.60;8.65;;;;;;;12.07;52.13;101637.28;10463407;28;20055;-72
2021/03/19 10:57:01;;;;;;;10.90;8.90;;;;;;;12.63;50.43;101568.34;10463995;28;20033;-72
2021/03/19 11:02:11;;;;;;;8.18;6.65;;;;;;;11.69;49.80;101490.72;10447393;28;20053;-72
2021/03/19 11:07:16;;;;;;;7.95;7.07;;;;;;;12.40;48.01;101466.97;10444542;28;20065;-72
2021/03/19 11:12:21;;;;;;;8.88;7.97;;;;;;;13.17;48.75;101611.25;10445372;28;20045;-72
2021/03/19 11:17:23;;;;;;;5.57;3.50;;;;;;;13.66;48.10;101601.34;10463346;28;20041;-72
2021/03/19 11:22:40;;;;;;;6.50;5.05;;;;;;;14.01;47.74;101621.06;10463566;28;20402;-71
2021/03/19 11:27:42;;;;;;;4.32;2.95;;;;;;;12.76;48.43;101456.78;10459895;28;20098;-72
2021/03/19 11:32:43;;;;;;;5.10;2.80;;;;;;;13.20;47.95;101595.25;10464316;28;20039;-71
2021/03/19 11:37:46;;;;;;;5.57;2.90;;;;;;;14.03;46.53;101598.00;10461976;28;20103;-71
2021/03/19 11:42:53;;;;;;;8.07;5.03;;;;;;;13.99;46.26;101559.31;10462349;28;20106;-71
2021/03/19 11:47:57;;;;;;;5.88;3.75;;;;;;;13.81;45.92;101513.28;10462384;28;20052;-71
2021/03/19 11:53:22;;;;;;;3.97;2.40;;;;;;;13.07;46.46;101551.63;10461698;28;20107;-73
2021/03/19 11:58:28;;;;;;;3.38;2.08;;;;;;;12.85;46.25;101468.75;10461265;28;20516;-72
2021/03/19 12:03:50;;;;;;;4.25;2.30;;;;;;;12.53;48.04;101457.69;10462588;28;20439;-71
2021/03/19 12:08:52;;;;;;;6.70;2.80;;;;;;;13.35;46.46;101527.59;10460676;28;20041;-71
2021/03/19 12:13:55;;;;;;;5.43;2.40;;;;;;;13.08;45.30;101429.00;10462569;28;20441;-71
2021/03/19 12:18:57;;;;;;;8.52;3.10;;;;;;;13.05;44.60;101450.31;10460451;28;20056;-72
2021/03/19 12:23:58;;;;;;;4.50;2.03;;;;;;;11.24;48.49;101399.00;10461734;28;20395;-72
2021/03/19 12:28:59;;;;;;;3.25;1.80;;;;;;;11.62;47.07;101392.41;10460212;28;20045;-72
2021/03/19 12:34:00;;;;;;;3.70;1.45;;;;;;;12.14;47.24;101499.66;10462208;28;20041;-72
2021/03/19 12:39:03;;;;;;;3.25;2.47;;;;;;;11.89;46.83;101458.34;10458549;28;20534;-72
2021/03/19 12:44:09;;;;;;;4.38;2.45;;;;;;;11.03;48.94;101376.03;10454443;28;20450;-72
2021/03/19 12:49:11;;;;;;;4.30;2.33;;;;;;;10.71;47.17;101273.44;10459955;28;20040;-73
2021/03/19 12:54:13;;;;;;;4.57;2.53;;;;;;;10.32;50.29;101409.94;10459687;28;20047;-73
2021/03/19 12:59:14;;;;;;;8.45;3.40;;;;;;;11.44;48.92;101471.34;10459319;28;20052;-72
2021/03/19 13:04:15;;;;;;;9.55;3.75;;;;;;;11.19;49.37;101435.25;10420128;28;20428;-73
2021/03/19 13:09:17;;;;;;;9.15;4.22;;;;;;;11.38;49.54;101456.59;10417783;28;20405;-73
2021/03/19 13:14:18;;;;;;;5.47;2.25;;;;;;;10.34;49.51;101293.09;10435128;28;20045;-73
2021/03/19 13:19:21;;;;;;;4.22;2.38;;;;;;;11.14;48.42;101386.19;10418412;28;20513;-73
2021/03/19 13:24:22;;;;;;;3.00;1.70;;;;;;;9.95;52.07;101381.19;10434303;28;20041;-73
2021/03/19 13:29:24;;;;;;;4.03;1.77;;;;;;;10.06;50.51;101379.94;10449423;28;20056;-73
2021/03/19 13:34:25;;;;;;;3.05;2.10;;;;;;;10.14;50.27;101356.88;10459876;28;20144;-73
2021/03/19 13:39:27;;;;;;;4.10;1.60;;;;;;;9.24;51.50;101299.91;10455368;28;20218;-72
2021/03/19 13:44:29;;;;;;;4.13;2.30;;;;;;;9.30;50.87;101331.28;10457587;28;20054;-73
2021/03/19 13:49:31;;;;;;;3.17;2.20;;;;;;;9.71;49.72;101354.66;10457876;28;20460;-73
2021/03/19 13:54:33;;;;;;;3.75;1.75;;;;;;;9.51;49.18;101305.25;10457843;28;20114;-73
2021/03/19 13:59:36;;;;;;;3.55;1.60;;;;;;;9.57;51.19;101364.72;10457822;28;20045;-72
2021/03/19 14:04:37;;;;;;;3.53;1.60;;;;;;;9.64;51.39;101352.25;10458963;28;20065;-72
2021/03/19 14:09:39;;;;;;;2.58;1.65;;;;;;;9.27;52.15;101361.16;10457935;28;20045;-72
2021/03/19 14:14:40;;;;;;;2.17;1.60;;;;;;;8.87;51.84;101295.63;10457739;28;20053;-73
2021/03/19 14:19:43;;;;;;;2.25;1.70;;;;;;;8.77;51.55;101335.34;10465647;28;20095;-73
2021/03/19 14:24:45;;;;;;;3.35;1.83;;;;;;;8.98;51.25;101338.25;10467073;28;20047;-72
2021/03/19 14:29:46;;;;;;;2.38;1.35;;;;;;;9.17;51.25;101348.31;10466012;28;20039;-73
2021/03/19 14:34:48;;;;;;;4.45;1.63;;;;;;;8.51;53.53;101315.81;10466390;28;20048;-73
2021/03/19 14:39:49;;;;;;;3.85;2.10;;;;;;;8.33;54.32;101351.25;10465709;28;20378;-74
2021/03/19 14:44:50;;;;;;;2.38;1.40;;;;;;;8.89;53.08;101412.06;10467996;28;20045;-73
2021/03/19 14:49:51;;;;;;;2.58;1.50;;;;;;;8.37;52.77;101310.03;10466454;28;20041;-73
2021/03/19 14:54:52;;;;;;;3.72;1.60;;;;;;;8.20;52.75;101318.25;10465422;28;20052;-73
2021/03/19 14:59:53;;;;;;;4.20;2.33;;;;;;;8.02;51.38;101295.09;10463746;28;20386;-73
2021/03/19 15:04:54;;;;;;;4.38;2.90;;;;;;;8.60;52.43;101390.91;10463957;28;20056;-72
2021/03/19 15:09:56;;;;;;;3.28;1.70;;;;;;;8.79;52.59;101393.97;10463944;28;20028;-73
2021/03/19 15:14:57;;;;;;;4.57;2.10;;;;;;;8.85;52.24;101391.19;10464366;28;20045;-73
2021/03/19 15:19:58;;;;;;;3.00;2.00;;;;;;;8.50;53.32;101369.25;10464249;28;20320;-73
2021/03/19 15:25:00;;;;;;;4.05;2.78;;;;;;;8.45;51.68;101336.13;10464186;28;20051;-73
2021/03/19 15:30:05;;;;;;;5.90;3.28;;;;;;;8.58;50.86;101333.16;10461948;28;20477;-73
2021/03/19 15:35:08;;;;;;;5.65;3.70;;;;;;;8.65;51.41;101352.25;10463382;28;20474;-72
2021/03/19 15:40:14;;;;;;;9.63;7.63;;;;;;;8.55;51.41;101334.97;10462150;28;20128;-73
2021/03/19 15:45:15;;;;;;;11.38;9.65;;;;;;;8.53;52.43;101357.81;10462988;28;20040;-73
2021/03/19 15:50:29;;;;;;;3.35;2.00;;;;;;;8.02;54.25;101334.44;10462150;28;20102;-73
2021/03/19 15:55:32;;;;;;;4.10;2.28;;;;;;;8.09;54.90;101385.03;10461982;28;20045;-72
2021/03/19 16:00:36;;;;;;;3.55;2.22;;;;;;;7.86;53.87;101330.44;10462565;28;20087;-73
2021/03/19 16:05:39;;;;;;;5.20;2.58;;;;;;;7.95;54.47;101366.97;10462721;28;20055;-72
2021/03/19 16:10:43;;;;;;;4.78;2.88;;;;;;;7.84;54.28;101358.44;10462324;28;20048;-73
2021/03/19 16:15:44;;;;;;;3.75;1.92;;;;;;;8.10;55.14;101423.50;10461720;28;20053;-73
2021/03/19 16:20:47;;;;;;;29.55;26.40;;;;;;;7.91;55.66;101416.00;10454857;28;20056;-73
2021/03/19 16:25:49;;;;;;;4.13;2.53;;;;;;;7.65;55.98;101389.41;10455024;28;20080;-73
2021/03/19 16:30:52;;;;;;;4.43;3.17;;;;;;;7.30;56.75;101399.69;10431859;28;20045;-73
2021/03/19 16:35:56;;;;;;;5.28;3.83;;;;;;;7.29;56.83;101400.59;10460353;28;20371;-73
2021/03/19 16:41:01;;;;;;;5.53;3.30;;;;;;;7.26;56.93;101419.88;10449055;28;20068;-73
2021/03/19 16:46:03;;;;;;;;;;;;;;;7.30;57.32;101439.03;10426569;28;20370;-73
2021/03/19 16:51:06;;;;;;;11.93;10.48;;;;;;;7.19;58.06;101454.94;10454672;28;19991;-73
2021/03/19 16:56:07;;;;;;;6.55;4.03;;;;;;;7.14;57.33;101435.78;10418924;28;20072;-73
2021/03/19 17:01:08;;;;;;;6.35;5.38;;;;;;;7.07;58.67;101458.63;10438094;28;20076;-72
2021/03/19 17:06:10;;;;;;;3.88;2.97;;;;;;;6.77;59.33;101433.78;10457008;28;20045;-72
2021/03/19 17:11:11;;;;;;;3.70;2.50;;;;;;;6.82;59.86;101478.22;10458628;28;20106;-73
2021/03/19 17:16:13;;;;;;;4.75;2.97;;;;;;;6.60;60.52;101485.53;10458425;28;20428;-73
2021/03/19 17:21:15;;;;;;;4.18;2.78;;;;;;;6.41;61.74;101484.91;10462791;28;20116;-73
2021/03/19 17:26:20;;;;;;;4.25;2.40;;;;;;;6.16;63.96;101506.16;10451324;28;20052;-73
2021/03/19 17:31:21;;;;;;;3.58;2.20;;;;;;;5.96;64.50;101501.16;10423605;28;20037;-72
2021/03/19 17:36:22;;;;;;;3.90;1.85;;;;;;;5.97;65.23;101526.44;10432691;28;20058;-73
2021/03/19 17:41:26;;;;;;;12.88;11.70;;;;;;;5.86;65.09;101509.97;10417508;28;20118;-72
2021/03/19 17:46:27;;;;;;;4.97;3.17;;;;;;;5.88;64.19;101526.53;10432818;28;20095;-73
2021/03/19 17:51:30;;;;;;;3.42;1.98;;;;;;;5.73;64.79;101514.44;10435349;28;20124;-72
2021/03/19 17:56:33;;;;;;;4.07;2.17;;;;;;;5.70;65.61;101548.44;10427831;28;20051;-73
2021/03/19 18:01:36;;;;;;;3.80;2.25;;;;;;;5.46;66.61;101533.84;10430913;28;20041;-73
2021/03/19 18:06:53;;;;;;;4.00;2.30;;;;;;;5.69;67.11;101588.56;10432179;28;20061;-73
2021/03/19 18:11:54;;;;;;;4.28;2.65;;;;;;;5.59;67.85;101582.53;10399494;28;20049;-73
2021/03/19 18:16:55;;;;;;;3.72;1.98;;;;;;;5.69;68.84;101612.94;10415941;28;20135;-72
2021/03/19 18:21:57;;;;;;;3.10;1.70;;;;;;;5.55;69.72;101619.16;10416589;28;20099;-73
2021/03/19 18:26:59;;;;;;;3.53;1.90;;;;;;;5.52;70.57;101637.50;10415621;28;20049;-72
2021/03/19 18:32:00;;;;;;;3.47;1.77;;;;;;;5.18;71.94;101629.00;10415710;28;20455;-73
2021/03/19 18:37:10;;;;;;;3.22;2.05;;;;;;;4.99;73.33;101646.50;10415196;28;20054;-73
2021/03/19 18:42:12;;;;;;;6.18;4.22;;;;;;;4.91;74.72;101669.16;10416390;28;20045;-72
2021/03/19 18:47:13;;;;;;;5.63;3.72;;;;;;;4.68;75.92;101674.47;10415265;28;20052;-73
2021/03/19 18:52:14;;;;;;;4.32;2.78;;;;;;;4.55;77.14;101694.50;10417976;28;20073;-72
2021/03/19 18:57:16;;;;;;;3.80;2.67;;;;;;;4.64;77.93;101716.22;10426956;28;20079;-72
2021/03/19 19:02:17;;;;;;;5.72;3.13;;;;;;;4.71;77.71;101741.44;10433057;28;20347;-73
2021/03/19 19:07:35;;;;;;;5.60;3.15;;;;;;;4.34;78.11;101725.00;10422662;28;20443;-73
2021/03/19 19:12:38;;;;;;;4.93;3.17;;;;;;;4.20;78.78;101736.28;10438151;28;20077;-72
2021/03/19 19:17:40;;;;;;;4.65;3.33;;;;;;;4.38;79.40;101766.72;10438228;28;20100;-72
2021/03/19 19:22:42;;;;;;;3.92;2.80;;;;;;;4.51;80.52;101788.47;10421454;28;20041;-72
2021/03/19 19:27:43;;;;;;;4.18;2.70;;;;;;;4.57;81.16;101798.88;10437941;28;20053;-72
2021/03/19 19:32:45;;;;;;;4.82;2.95;;;;;;;4.49;82.01;101800.63;10422462;28;20044;-72
2021/03/19 19:37:56;;;;;;;9.18;6.97;;;;;;;4.64;82.27;101829.31;10420407;28;20486;-72
2021/03/19 19:42:58;;;;;;;4.22;2.70;;;;;;;4.61;82.30;101829.31;10424562;28;20394;-72
2021/03/19 19:48:00;;;;;;;4.88;2.75;;;;;;;4.60;82.22;101832.81;10441222;28;20045;-72
2021/03/19 19:53:03;;;;;;;4.82;2.97;;;;;;;4.76;82.13;101857.19;10421512;28;20463;-73
2021/03/19 19:58:10;;;;;;;5.50;2.58;;;;;;;4.96;81.52;101877.16;10421035;28;20485;-72
2021/03/19 20:03:29;;;;;;;4.10;2.67;;;;;;;4.92;81.47;101865.00;10420982;28;20045;-72
2021/03/19 20:08:31;;;;;;;4.68;2.85;;;;;;;4.86;81.35;101854.53;10420730;28;20037;-72
2021/03/19 20:13:32;;;;;;;5.68;3.17;;;;;;;4.80;81.74;101865.00;10420876;28;20041;-72
2021/03/19 20:18:38;;;;;;;4.80;2.90;;;;;;;4.64;82.27;101852.81;10419410;28;20061;-73
2021/03/19 20:23:39;;;;;;;5.57;3.72;;;;;;;4.50;83.22;101841.53;10419708;28;20466;-72
2021/03/19 20:28:47;;;;;;;6.10;3.15;;;;;;;4.42;84.21;101846.72;10419003;28;20049;-73
2021/03/19 20:33:49;;;;;;;6.70;3.65;;;;;;;4.47;84.84;101860.63;10419804;28;20041;-72
2021/03/19 20:38:50;;;;;;;4.50;3.47;;;;;;;4.47;85.44;101867.59;10419325;28;20057;-72
2021/03/19 20:43:52;;;;;;;4.88;3.60;;;;;;;4.49;85.61;101869.34;10403000;28;20053;-72
2021/03/19 20:48:53;;;;;;;5.68;3.80;;;;;;;4.32;86.06;101864.97;10418437;28;20045;-72
2021/03/19 20:53:56;;;;;;;6.35;3.42;;;;;;;4.06;87.31;101854.50;10418726;28;20072;-72
2021/03/19 20:58:59;;;;;;;7.18;5.13;;;;;;;3.97;88.80;101857.94;10417882;28;20053;-72
2021/03/19 21:04:06;;;;;;;7.13;5.18;;;;;;;3.99;89.45;101891.84;10418771;28;20045;-72
2021/03/19 21:09:28;;;;;;;6.72;5.13;;;;;;;3.86;90.78;101885.69;10417153;28;20045;-71
2021/03/19 21:14:30;;;;;;;8.82;4.75;;;;;;;3.82;93.36;101907.41;10418919;28;20056;-72
2021/03/19 21:19:32;;;;;;;5.80;4.80;;;;;;;3.84;94.12;101923.94;10417160;28;20044;-72
2021/03/19 21:24:34;;;;;;;6.20;4.88;;;;;;;4.06;92.91;101951.84;10443953;28;20041;-72
2021/03/19 21:29:35;;;;;;;6.68;5.00;;;;;;;3.63;93.32;101914.28;10451441;28;20052;-71
2021/03/19 21:34:37;;;;;;;6.65;4.18;;;;;;;3.47;95.87;101927.22;10458018;28;20048;-72
2021/03/19 21:39:38;;;;;;;7.13;4.85;;;;;;;3.52;94.41;101954.16;10457511;28;20033;-72
2021/03/19 21:44:40;;;;;;;6.70;5.50;;;;;;;3.56;92.24;101959.41;10446373;28;20367;-73
2021/03/19 21:49:42;;;;;;;6.75;5.05;;;;;;;3.43;91.39;101968.84;10416485;28;20049;-72
2021/03/19 21:54:45;;;;;;;7.53;5.00;;;;;;;3.62;89.39;102001.13;10417394;28;20049;-71
2021/03/19 21:59:47;;;;;;;8.63;5.43;;;;;;;3.65;87.73;102000.28;10450607;28;20476;-72
2021/03/19 22:04:48;;;;;;;7.22;4.63;;;;;;;3.44;87.49;101973.22;10440666;28;20103;-72
2021/03/19 22:09:49;;;;;;;7.70;5.10;;;;;;;3.13;88.61;101942.59;10457535;28;20045;-72
2021/03/19 22:14:51;;;;;;;6.82;5.30;;;;;;;2.70;90.14;101922.28;10457284;28;20044;-72
2021/03/19 22:19:52;;;;;;;5.57;4.63;;;;;;;2.84;91.54;101984.03;10457349;28;20037;-71
2021/03/19 22:24:53;;;;;;;6.20;5.00;;;;;;;3.14;90.36;102022.47;10456947;28;20045;-72
2021/03/19 22:29:55;;;;;;;6.25;5.38;;;;;;;3.23;89.98;102022.56;10456676;28;20041;-72
2021/03/19 22:34:56;;;;;;;7.35;5.43;;;;;;;3.22;89.11;102020.81;10456626;28;20053;-72
2021/03/19 22:40:15;;;;;;;6.30;5.20;;;;;;;3.24;88.22;102028.63;10463919;28;20037;-72
2021/03/19 22:45:17;;;;;;;6.18;5.15;;;;;;;3.16;88.22;102025.97;10465081;28;20761;-72
2021/03/19 22:50:25;;;;;;;6.05;5.32;;;;;;;3.11;88.02;102022.44;10453429;28;20145;-73
2021/03/19 22:55:27;;;;;;;8.23;5.70;;;;;;;3.07;88.09;102015.47;10423034;28;20045;-73
2021/03/19 23:00:38;;;;;;;7.32;5.75;;;;;;;3.13;88.37;102036.34;10455019;28;20068;-73
2021/03/19 23:05:40;;;;;;;7.30;6.35;;;;;;;3.12;88.64;102033.72;10463063;28;20056;-73
2021/03/19 23:10:47;;;;;;;8.35;7.50;;;;;;;3.30;88.58;102046.91;10464597;28;20041;-73
2021/03/19 23:15:49;;;;;;;9.23;6.75;;;;;;;3.26;88.95;102042.53;10469267;28;20051;-73
2021/03/19 23:20:53;;;;;;;7.82;6.25;;;;;;;3.22;89.34;102044.25;10464217;28;20061;-73
2021/03/19 23:25:55;;;;;;;8.27;7.40;;;;;;;3.25;89.92;102043.41;10463181;28;20041;-73